Time;durP1;ratioP1;P1;durP2;ratioP2;P2;SDS_P1;SDS_P2;PMS_P1;PMS_P2;Temp;Humidity;BMP_temperature;BMP_pressure;BME280_temperature;BME280_humidity;BME280_pressure;Samples;Min_cycle;Max_cycle;Signal;HPM_P1;HPM_P2
2023/01/05 00:01:47;;;;;;;0.00;0.00;;;;;;;;;;5094148;28;20461;-57
2023/01/05 00:04:12;;;;;;;0.00;0.00;;;;;;;;;;5093947;28;20019;-60
2023/01/05 00:06:38;;;;;;;0.00;0.00;;;;;;;;;;5092307;28;20128;-58
2023/01/05 00:09:04;;;;;;;0.00;0.00;;;;;;;;;;5092299;28;20065;-58
2023/01/05 00:22:30;;;;;;;0.55;0.00;;;;;;;;;;5093504;28;20047;-59
2023/01/05 00:24:57;;;;;;;1.08;0.55;;;;;;;;;;5093800;28;20019;-60
2023/01/05 00:27:22;;;;;;;1.45;0.40;;;;;;;;;;5093182;28;20441;-58
2023/01/05 00:29:48;;;;;;;1.55;0.30;;;;;;;;;;5093399;28;20044;-58
2023/01/05 00:32:13;;;;;;;0.38;0.20;;;;;;;;;;5093422;28;20016;-58
2023/01/05 00:34:39;;;;;;;0.63;0.17;;;;;;;;;;5093219;28;20012;-59
2023/01/05 00:37:04;;;;;;;2.05;0.30;;;;;;;;;;5091770;28;20036;-58
2023/01/05 00:39:29;;;;;;;0.45;0.20;;;;;;;;;;5093481;28;20024;-58
2023/01/05 00:41:55;;;;;;;0.08;0.00;;;;;;;;;;5093783;28;20031;-58
2023/01/05 00:44:20;;;;;;;1.35;0.30;;;;;;;;;;5093483;28;20027;-58
2023/01/05 00:46:46;;;;;;;5.00;0.30;;;;;;;;;;5093620;28;20031;-57
2023/01/05 00:49:11;;;;;;;0.80;0.30;;;;;;;;;;5092866;28;20019;-58
2023/01/05 00:51:37;;;;;;;0.85;0.30;;;;;;;;;;5091606;28;20038;-58
2023/01/05 00:54:02;;;;;;;2.95;0.20;;;;;;;;;;5091903;28;20024;-56
2023/01/05 00:56:28;;;;;;;2.65;0.75;;;;;;;;;;5092962;28;20043;-57
2023/01/05 00:58:54;;;;;;;0.20;0.13;;;;;;;;;;5091724;28;20020;-58
2023/01/05 01:01:19;;;;;;;0.90;0.25;;;;;;;;;;5092713;28;20103;-58
2023/01/05 01:03:45;;;;;;;1.25;0.45;;;;;;;;;;5092782;28;20415;-59
2023/01/05 01:06:11;;;;;;;0.85;0.30;;;;;;;;;;5091311;28;20549;-59
2023/01/05 01:08:37;;;;;;;2.53;0.68;;;;;;;;;;5092703;28;20369;-59
2023/01/05 01:11:04;;;;;;;3.75;0.68;;;;;;;;;;5092466;28;20491;-59
2023/01/05 01:13:29;;;;;;;1.75;0.35;;;;;;;;;;5092868;28;20369;-58
2023/01/05 01:15:55;;;;;;;2.67;0.73;;;;;;;;;;5092932;28;20016;-59
2023/01/05 01:18:22;;;;;;;4.95;0.60;;;;;;;;;;5092703;28;20028;-59
2023/01/05 01:20:47;;;;;;;0.75;0.40;;;;;;;;;;5091228;28;20024;-58
2023/01/05 01:23:12;;;;;;;1.92;0.93;;;;;;;;;;5091207;28;20074;-59
2023/01/05 01:25:38;;;;;;;1.60;0.45;;;;;;;;;;5091185;28;20023;-58
2023/01/05 01:28:04;;;;;;;2.65;0.70;;;;;;;;;;5092524;28;20070;-57
2023/01/05 01:30:29;;;;;;;1.10;0.52;;;;;;;;;;5090362;28;20024;-57
2023/01/05 01:32:55;;;;;;;0.82;0.43;;;;;;;;;;5092470;28;20052;-57
2023/01/05 01:35:20;;;;;;;3.85;0.75;;;;;;;;;;5090746;28;20016;-56
2023/01/05 01:37:46;;;;;;;3.65;0.98;;;;;;;;;;5092402;28;20111;-58
2023/01/05 01:40:12;;;;;;;6.45;0.43;;;;;;;;;;5092604;28;20009;-56
2023/01/05 01:42:37;;;;;;;0.75;0.40;;;;;;;;;;5091552;28;20073;-56
2023/01/05 01:45:23;;;;;;;1.58;0.60;;;;;;;;;;5092199;28;20020;-57
2023/01/05 01:47:55;;;;;;;9.35;1.42;;;;;;;;;;5091736;28;20027;-56
2023/01/05 01:50:21;;;;;;;3.83;1.10;;;;;;;;;;5092625;28;20023;-57
2023/01/05 01:52:48;;;;;;;4.07;1.25;;;;;;;;;;5091364;28;20020;-55
2023/01/05 01:55:13;;;;;;;3.95;1.35;;;;;;;;;;5092119;28;20041;-56
2023/01/05 01:57:39;;;;;;;4.15;1.42;;;;;;;;;;5092319;28;20032;-58
2023/01/05 02:00:06;;;;;;;5.25;1.50;;;;;;;;;;5090903;28;20075;-57
2023/01/05 02:02:32;;;;;;;6.72;1.20;;;;;;;;;;5090679;28;20407;-57
2023/01/05 02:05:01;;;;;;;4.20;0.90;;;;;;;;;;5091707;28;20051;-56
2023/01/05 02:07:28;;;;;;;3.20;1.05;;;;;;;;;;5092145;28;20032;-57
2023/01/05 02:09:54;;;;;;;4.50;1.00;;;;;;;;;;5092043;28;20019;-57
2023/01/05 02:12:31;;;;;;;2.75;1.42;;;;;;;;;;5091051;28;20024;-57
2023/01/05 02:14:59;;;;;;;4.53;0.88;;;;;;;;;;5091707;28;20016;-57
2023/01/05 02:17:36;;;;;;;4.72;1.00;;;;;;;;;;5091997;28;20032;-57
2023/01/05 02:20:10;;;;;;;4.85;0.98;;;;;;;;;;5091952;28;20031;-57
2023/01/05 02:22:45;;;;;;;3.28;0.73;;;;;;;;;;5091884;28;20077;-57
2023/01/05 02:25:29;;;;;;;2.00;0.68;;;;;;;;;;5090286;28;20377;-56
2023/01/05 02:27:54;;;;;;;2.83;1.30;;;;;;;;;;5091359;28;20381;-57
2023/01/05 02:30:32;;;;;;;3.00;1.17;;;;;;;;;;5091560;28;20050;-57
2023/01/05 02:33:16;;;;;;;6.28;1.52;;;;;;;;;;5091606;28;20427;-57
2023/01/05 02:35:50;;;;;;;8.93;1.70;;;;;;;;;;5091758;28;20465;-57
2023/01/05 02:38:19;;;;;;;4.25;0.88;;;;;;;;;;5090720;28;20032;-57
2023/01/05 02:40:47;;;;;;;3.10;1.10;;;;;;;;;;5090751;28;20198;-57
2023/01/05 02:43:13;;;;;;;5.68;1.33;;;;;;;;;;5094798;28;20020;-57
2023/01/05 02:45:39;;;;;;;2.83;1.05;;;;;;;;;;5094142;28;20077;-60
2023/01/05 02:48:04;;;;;;;6.43;1.20;;;;;;;;;;5095764;28;20024;-57
2023/01/05 02:50:30;;;;;;;2.05;0.82;;;;;;;;;;5095380;28;20026;-56
2023/01/05 02:53:02;;;;;;;3.67;1.30;;;;;;;;;;5095517;28;20025;-56
2023/01/05 02:55:42;;;;;;;6.00;0.88;;;;;;;;;;5095631;28;20074;-58
2023/01/05 02:58:19;;;;;;;2.85;1.35;;;;;;;;;;5095241;28;20164;-57
2023/01/05 03:01:06;;;;;;;8.80;1.30;;;;;;;;;;5093683;28;20028;-58
2023/01/05 03:03:36;;;;;;;2.20;0.70;;;;;;;;;;5094428;28;20103;-56
2023/01/05 03:06:12;;;;;;;3.15;1.15;;;;;;;;;;5095056;28;20048;-58
2023/01/05 03:08:40;;;;;;;2.30;0.55;;;;;;;;;;5095125;28;20020;-56
2023/01/05 03:14:12;;;;;;;3.00;1.02;;;;;;;;;;5095541;28;20023;-58
2023/01/05 03:16:38;;;;;;;4.00;1.17;;;;;;;;;;5094884;28;20444;-58
2023/01/05 03:35:41;;;;;;;2.27;0.97;;;;;;;;;;5095017;28;20069;-57
2023/01/05 03:38:06;;;;;;;1.63;1.00;;;;;;;;;;5094571;28;20046;-57
2023/01/05 03:40:33;;;;;;;4.30;1.25;;;;;;;;;;5094724;28;20016;-57
2023/01/05 03:42:59;;;;;;;3.90;1.23;;;;;;;;;;5094129;28;20016;-57
2023/01/05 03:45:27;;;;;;;5.90;1.27;;;;;;;;;;5093290;28;20161;-57
2023/01/05 03:47:54;;;;;;;1.63;0.80;;;;;;;;;;5093078;28;20382;-57
2023/01/05 03:50:20;;;;;;;3.67;1.95;;;;;;;;;;5094370;28;20024;-60
2023/01/05 03:52:45;;;;;;;2.28;1.15;;;;;;;;;;5094078;28;20020;-56
2023/01/05 03:55:11;;;;;;;3.23;1.33;;;;;;;;;;5092587;28;20117;-56
2023/01/05 03:57:36;;;;;;;5.05;1.02;;;;;;;;;;5094289;28;20166;-56
2023/01/05 04:00:02;;;;;;;1.63;0.80;;;;;;;;;;5094527;28;20019;-56
2023/01/05 04:02:28;;;;;;;3.93;1.30;;;;;;;;;;5092819;28;20594;-56
2023/01/05 04:04:53;;;;;;;3.13;1.20;;;;;;;;;;5094023;28;20065;-56
2023/01/05 04:07:18;;;;;;;2.95;1.27;;;;;;;;;;5093869;28;20103;-57
2023/01/05 04:09:44;;;;;;;4.47;1.75;;;;;;;;;;5094188;28;20026;-56
2023/01/05 04:12:09;;;;;;;2.45;1.10;;;;;;;;;;5094444;28;20020;-56
2023/01/05 04:14:35;;;;;;;3.15;1.40;;;;;;;;;;5092722;28;20032;-56
2023/01/05 04:17:00;;;;;;;4.07;1.75;;;;;;;;;;5092518;28;20024;-56
2023/01/05 04:19:26;;;;;;;4.30;1.65;;;;;;;;;;5094348;28;20535;-56
2023/01/05 04:21:51;;;;;;;1.08;0.80;;;;;;;;;;5092891;28;20065;-56
2023/01/05 04:24:16;;;;;;;3.45;1.40;;;;;;;;;;5093819;28;20532;-56
2023/01/05 04:26:42;;;;;;;4.82;1.40;;;;;;;;;;5092528;28;20016;-57
2023/01/05 04:29:09;;;;;;;4.20;1.70;;;;;;;;;;5093610;28;20095;-56
2023/01/05 04:31:34;;;;;;;7.47;2.20;;;;;;;;;;5092823;28;20026;-56
2023/01/05 04:34:00;;;;;;;4.32;1.65;;;;;;;;;;5095204;28;20452;-56
2023/01/05 04:36:25;;;;;;;4.10;1.48;;;;;;;;;;5093968;28;20020;-55
2023/01/05 04:38:51;;;;;;;1.83;1.13;;;;;;;;;;5093714;28;20039;-56
2023/01/05 04:41:16;;;;;;;3.70;1.75;;;;;;;;;;5092755;28;20016;-56
2023/01/05 04:43:41;;;;;;;4.13;1.20;;;;;;;;;;5092645;28;20020;-56
2023/01/05 04:46:07;;;;;;;3.17;1.08;;;;;;;;;;5093211;28;20027;-56
2023/01/05 04:48:32;;;;;;;8.27;1.73;;;;;;;;;;5094875;28;20016;-56
2023/01/05 04:50:58;;;;;;;4.93;1.50;;;;;;;;;;5095484;28;20440;-58
2023/01/05 04:53:24;;;;;;;7.43;1.50;;;;;;;;;;5094441;28;20499;-58
2023/01/05 04:55:50;;;;;;;4.38;1.38;;;;;;;;;;5092229;28;20020;-57
2023/01/05 04:58:15;;;;;;;6.27;2.20;;;;;;;;;;5093355;28;20036;-56
2023/01/05 05:00:41;;;;;;;6.20;1.60;;;;;;;;;;5093397;28;20020;-55
2023/01/05 05:03:06;;;;;;;4.47;1.20;;;;;;;;;;5092566;28;20023;-58
2023/01/05 05:05:32;;;;;;;4.68;1.80;;;;;;;;;;5091686;28;20485;-56
2023/01/05 05:07:57;;;;;;;5.07;2.23;;;;;;;;;;5092853;28;20511;-56
2023/01/05 05:10:23;;;;;;;5.53;1.33;;;;;;;;;;5091966;28;20477;-56
2023/01/05 05:12:48;;;;;;;7.63;1.60;;;;;;;;;;5093400;28;20027;-57
2023/01/05 05:15:14;;;;;;;1.97;0.70;;;;;;;;;;5091610;28;20012;-56
2023/01/05 05:17:39;;;;;;;5.30;1.60;;;;;;;;;;5092521;28;20085;-57
2023/01/05 05:20:05;;;;;;;3.33;1.10;;;;;;;;;;5092595;28;20550;-57
2023/01/05 05:22:31;;;;;;;3.80;1.60;;;;;;;;;;5094681;28;20116;-62
2023/01/05 05:24:56;;;;;;;6.68;1.20;;;;;;;;;;5092602;28;20022;-58
2023/01/05 05:27:22;;;;;;;3.13;1.48;;;;;;;;;;5093248;28;20354;-57
2023/01/05 05:29:47;;;;;;;4.00;1.40;;;;;;;;;;5093651;28;20413;-57
2023/01/05 05:32:12;;;;;;;5.95;1.70;;;;;;;;;;5092525;28;20024;-57
2023/01/05 05:34:38;;;;;;;3.50;1.00;;;;;;;;;;5094313;28;20419;-62
2023/01/05 05:37:03;;;;;;;19.13;1.30;;;;;;;;;;5092506;28;20024;-57
2023/01/05 05:39:29;;;;;;;3.63;1.20;;;;;;;;;;5092443;28;20016;-57
2023/01/05 05:41:55;;;;;;;6.63;1.83;;;;;;;;;;5093010;28;20457;-59
2023/01/05 05:44:20;;;;;;;8.63;2.17;;;;;;;;;;5092674;28;20480;-57
2023/01/05 05:46:46;;;;;;;11.30;2.10;;;;;;;;;;5091368;28;20053;-57
2023/01/05 05:49:12;;;;;;;6.43;1.93;;;;;;;;;;5092229;28;20054;-57
2023/01/05 05:51:37;;;;;;;20.23;2.92;;;;;;;;;;5092140;28;20466;-57
2023/01/05 05:54:03;;;;;;;6.13;1.57;;;;;;;;;;5091098;28;20491;-57
2023/01/05 05:56:29;;;;;;;8.93;2.00;;;;;;;;;;5092412;28;20345;-57
2023/01/05 05:58:55;;;;;;;7.60;1.75;;;;;;;;;;5092170;28;20506;-58
2023/01/05 06:01:20;;;;;;;8.70;1.95;;;;;;;;;;5090958;28;20027;-59
2023/01/05 06:03:46;;;;;;;6.47;2.33;;;;;;;;;;5092124;28;20016;-57
2023/01/05 06:06:11;;;;;;;25.13;2.70;;;;;;;;;;5092082;28;20048;-57
2023/01/05 06:08:37;;;;;;;27.25;5.13;;;;;;;;;;5092575;28;20016;-57
2023/01/05 06:11:03;;;;;;;13.50;3.50;;;;;;;;;;5091971;28;20078;-57
2023/01/05 06:13:30;;;;;;;5.65;2.20;;;;;;;;;;5091014;28;20051;-57
2023/01/05 06:15:56;;;;;;;6.23;2.40;;;;;;;;;;5092232;28;20464;-57
2023/01/05 06:18:21;;;;;;;14.32;3.35;;;;;;;;;;5095965;28;20031;-57
2023/01/05 06:20:47;;;;;;;4.90;2.43;;;;;;;;;;5094802;28;20457;-58
2023/01/05 06:23:12;;;;;;;10.60;2.63;;;;;;;;;;5096968;28;20421;-57
2023/01/05 06:25:37;;;;;;;11.77;3.47;;;;;;;;;;5097070;28;20039;-57
2023/01/05 06:28:03;;;;;;;20.90;2.87;;;;;;;;;;5097472;28;20026;-57
2023/01/05 06:30:28;;;;;;;7.30;2.40;;;;;;;;;;5096289;28;20036;-58
2023/01/05 06:32:54;;;;;;;10.17;2.40;;;;;;;;;;5095502;28;20069;-57
2023/01/05 06:35:19;;;;;;;20.90;3.57;;;;;;;;;;5096002;28;20056;-62
2023/01/05 06:37:45;;;;;;;5.50;2.43;;;;;;;;;;5094550;28;20036;-57
2023/01/05 06:40:10;;;;;;;6.67;2.37;;;;;;;;;;5098277;28;20016;-57
2023/01/05 06:42:39;;;;;;;10.10;2.80;;;;;;;;;;5098690;28;20012;-58
2023/01/05 06:45:05;;;;;;;7.43;2.57;;;;;;;;;;5096330;28;20020;-56
2023/01/05 06:47:31;;;;;;;6.27;1.80;;;;;;;;;;5095839;28;20020;-57
2023/01/05 06:49:56;;;;;;;11.20;3.60;;;;;;;;;;5093998;28;20098;-56
2023/01/05 06:52:22;;;;;;;24.07;4.03;;;;;;;;;;5095111;28;20047;-56
2023/01/05 06:54:48;;;;;;;10.55;2.63;;;;;;;;;;5094573;28;20016;-55
2023/01/05 06:57:13;;;;;;;8.63;3.20;;;;;;;;;;5095246;28;20036;-57
2023/01/05 06:59:39;;;;;;;7.73;2.27;;;;;;;;;;5094044;28;20016;-56
2023/01/05 07:02:05;;;;;;;11.30;2.60;;;;;;;;;;5093984;28;20020;-58
2023/01/05 07:04:30;;;;;;;21.03;3.47;;;;;;;;;;5095356;28;20024;-58
2023/01/05 07:06:56;;;;;;;8.63;2.10;;;;;;;;;;5093168;28;20052;-62
2023/01/05 07:09:21;;;;;;;26.13;3.97;;;;;;;;;;5094106;28;20392;-59
2023/01/05 07:11:47;;;;;;;9.07;3.80;;;;;;;;;;5095607;28;20016;-56
2023/01/05 07:14:12;;;;;;;16.20;4.25;;;;;;;;;;5094045;28;20016;-56
2023/01/05 07:16:38;;;;;;;8.00;3.10;;;;;;;;;;5094920;28;20016;-58
2023/01/05 07:19:03;;;;;;;3.57;1.67;;;;;;;;;;5094218;28;20028;-56
2023/01/05 07:21:29;;;;;;;58.17;5.53;;;;;;;;;;5094816;28;20026;-57
2023/01/05 07:23:54;;;;;;;9.47;3.47;;;;;;;;;;5093534;28;20027;-57
2023/01/05 07:26:19;;;;;;;47.83;4.33;;;;;;;;;;5094728;28;20111;-57
2023/01/05 07:28:45;;;;;;;11.83;3.70;;;;;;;;;;5092280;28;20480;-58
2023/01/05 07:31:10;;;;;;;5.47;2.53;;;;;;;;;;5093145;28;20055;-58
2023/01/05 07:33:36;;;;;;;7.13;2.07;;;;;;;;;;5092904;28;20031;-57
2023/01/05 07:36:02;;;;;;;8.57;2.30;;;;;;;;;;5094817;28;20090;-59
2023/01/05 07:38:27;;;;;;;7.20;2.53;;;;;;;;;;5093939;28;20032;-58
2023/01/05 07:40:53;;;;;;;8.20;3.53;;;;;;;;;;5094353;28;20100;-56
2023/01/05 07:43:18;;;;;;;10.17;2.87;;;;;;;;;;5092719;28;20043;-57
2023/01/05 07:45:44;;;;;;;7.63;2.77;;;;;;;;;;5093162;28;20434;-56
2023/01/05 07:48:09;;;;;;;8.37;2.53;;;;;;;;;;5093193;28;20020;-57
2023/01/05 07:50:35;;;;;;;7.77;2.63;;;;;;;;;;5093212;28;20024;-56
2023/01/05 07:53:00;;;;;;;12.47;3.23;;;;;;;;;;5093186;28;20102;-57
2023/01/05 07:55:26;;;;;;;6.83;2.03;;;;;;;;;;5092833;28;20150;-56
2023/01/05 07:57:51;;;;;;;14.13;4.33;;;;;;;;;;5092431;28;20420;-57
2023/01/05 08:00:17;;;;;;;12.07;3.50;;;;;;;;;;5094070;28;20038;-57
2023/01/05 08:02:43;;;;;;;12.97;2.30;;;;;;;;;;5094135;28;20016;-56
2023/01/05 08:05:08;;;;;;;9.33;3.10;;;;;;;;;;5093694;28;20042;-57
2023/01/05 08:07:35;;;;;;;18.03;3.37;;;;;;;;;;5092892;28;20017;-58
2023/01/05 08:15:28;;;;;;;10.23;2.83;;;;;;;;;;5093905;28;20120;-57
2023/01/05 08:17:53;;;;;;;6.40;2.47;;;;;;;;;;5093803;28;20115;-56
2023/01/05 08:20:19;;;;;;;6.77;3.07;;;;;;;;;;5094342;28;20012;-59
2023/01/05 08:22:48;;;;;;;9.17;3.40;;;;;;;;;;5094025;28;20145;-58
2023/01/05 08:25:14;;;;;;;10.57;2.90;;;;;;;;;;5093425;28;20020;-56
2023/01/05 08:27:39;;;;;;;7.83;2.03;;;;;;;;;;5093575;28;20540;-57
2023/01/05 08:30:06;;;;;;;5.43;2.77;;;;;;;;;;5094281;28;20031;-60
2023/01/05 08:32:32;;;;;;;3.80;1.70;;;;;;;;;;5092864;28;20089;-57
2023/01/05 08:34:57;;;;;;;9.27;3.50;;;;;;;;;;5091961;28;20051;-58
2023/01/05 08:37:23;;;;;;;11.00;2.37;;;;;;;;;;5093474;28;20088;-57
2023/01/05 08:39:51;;;;;;;20.97;4.30;;;;;;;;;;5092958;28;20043;-58
2023/01/05 08:42:17;;;;;;;10.03;3.33;;;;;;;;;;5093303;28;20038;-57
2023/01/05 08:44:42;;;;;;;13.63;3.27;;;;;;;;;;5093595;28;20024;-57
2023/01/05 08:47:08;;;;;;;6.40;2.60;;;;;;;;;;5091925;28;20153;-57
2023/01/05 08:49:33;;;;;;;5.00;2.10;;;;;;;;;;5093250;28;20058;-57
2023/01/05 08:52:00;;;;;;;6.70;3.37;;;;;;;;;;5092615;28;20069;-58
2023/01/05 08:54:26;;;;;;;8.13;2.53;;;;;;;;;;5093425;28;20480;-57
2023/01/05 08:56:52;;;;;;;9.10;3.87;;;;;;;;;;5092575;28;20020;-58
2023/01/05 08:59:17;;;;;;;13.90;4.70;;;;;;;;;;5091821;28;20105;-57
2023/01/05 09:01:45;;;;;;;4.47;2.10;;;;;;;;;;5093449;28;20012;-59
2023/01/05 09:04:10;;;;;;;13.53;3.93;;;;;;;;;;5092984;28;20016;-57
2023/01/05 09:06:35;;;;;;;5.03;2.40;;;;;;;;;;5092857;28;20048;-56
2023/01/05 09:09:01;;;;;;;6.47;1.73;;;;;;;;;;5091870;28;20055;-58
2023/01/05 09:11:27;;;;;;;10.33;3.37;;;;;;;;;;5093206;28;20031;-56
2023/01/05 09:13:53;;;;;;;6.57;2.00;;;;;;;;;;5093202;28;20020;-58
2023/01/05 09:16:21;;;;;;;10.00;3.13;;;;;;;;;;5092968;28;20381;-57
2023/01/05 09:18:47;;;;;;;12.83;2.50;;;;;;;;;;5092617;28;20563;-58
2023/01/05 09:21:13;;;;;;;7.77;2.63;;;;;;;;;;5092706;28;20073;-57
2023/01/05 09:23:39;;;;;;;8.47;2.60;;;;;;;;;;5091548;28;20157;-58
2023/01/05 09:26:09;;;;;;;4.97;2.10;;;;;;;;;;5092898;28;20095;-58
2023/01/05 09:28:35;;;;;;;8.23;2.77;;;;;;;;;;5091619;28;20526;-58
2023/01/05 09:31:08;;;;;;;9.57;2.87;;;;;;;;;;5091395;28;20483;-56
2023/01/05 09:33:33;;;;;;;8.73;3.07;;;;;;;;;;5091407;28;20020;-58
2023/01/05 09:35:59;;;;;;;10.47;2.27;;;;;;;;;;5092638;28;20020;-58
2023/01/05 09:38:24;;;;;;;5.83;2.97;;;;;;;;;;5092035;28;20040;-59
2023/01/05 09:40:52;;;;;;;5.70;2.03;;;;;;;;;;5091143;28;20024;-58
2023/01/05 09:43:27;;;;;;;7.03;2.67;;;;;;;;;;5092328;28;20020;-56
2023/01/05 09:45:53;;;;;;;7.60;2.55;;;;;;;;;;5090990;28;20024;-62
2023/01/05 09:48:19;;;;;;;8.03;2.60;;;;;;;;;;5092507;28;20035;-57
2023/01/05 09:50:46;;;;;;;9.03;2.50;;;;;;;;;;5090845;28;20396;-58
2023/01/05 09:53:12;;;;;;;7.27;3.13;;;;;;;;;;5094539;28;20051;-57
2023/01/05 09:55:40;;;;;;;5.80;1.83;;;;;;;;;;5097242;28;20464;-57
2023/01/05 09:58:10;;;;;;;6.87;2.80;;;;;;;;;;5097049;28;20032;-57
2023/01/05 10:00:39;;;;;;;7.20;2.63;;;;;;;;;;5097582;28;20024;-59
2023/01/05 10:03:13;;;;;;;13.30;2.77;;;;;;;;;;5097306;28;20055;-57
2023/01/05 10:05:40;;;;;;;8.67;2.30;;;;;;;;;;5094993;28;20064;-56
2023/01/05 10:08:10;;;;;;;10.40;3.23;;;;;;;;;;5094501;28;20331;-57
2023/01/05 10:10:38;;;;;;;50.30;4.80;;;;;;;;;;5096314;28;20046;-57
2023/01/05 10:13:10;;;;;;;3.83;1.93;;;;;;;;;;5094995;28;20108;-58
2023/01/05 10:15:35;;;;;;;13.37;3.37;;;;;;;;;;5094852;28;20489;-58
2023/01/05 10:18:07;;;;;;;7.63;1.93;;;;;;;;;;5095702;28;20020;-58
2023/01/05 10:20:49;;;;;;;7.60;2.77;;;;;;;;;;5096255;28;20016;-59
2023/01/05 10:23:25;;;;;;;12.23;3.87;;;;;;;;;;5098145;28;20024;-58
2023/01/05 10:25:57;;;;;;;12.57;4.50;;;;;;;;;;5096910;28;20429;-59
2023/01/05 10:28:22;;;;;;;11.97;3.10;;;;;;;;;;5095296;28;20020;-57
2023/01/05 10:30:58;;;;;;;9.63;2.77;;;;;;;;;;5096294;28;20016;-58
2023/01/05 10:33:26;;;;;;;5.73;1.73;;;;;;;;;;5095925;28;20020;-58
2023/01/05 10:36:04;;;;;;;6.67;2.43;;;;;;;;;;5094490;28;20030;-57
2023/01/05 10:38:38;;;;;;;4.37;2.63;;;;;;;;;;5095367;28;20024;-58
2023/01/05 10:41:22;;;;;;;3.33;1.40;;;;;;;;;;5095351;28;20024;-57
2023/01/05 10:43:50;;;;;;;31.07;3.50;;;;;;;;;;5095458;28;20051;-57
2023/01/05 10:46:17;;;;;;;6.57;2.37;;;;;;;;;;5094097;28;20076;-58
2023/01/05 10:48:43;;;;;;;6.63;2.17;;;;;;;;;;5095365;28;20099;-56
2023/01/05 10:51:08;;;;;;;5.33;2.23;;;;;;;;;;5093799;28;20086;-59
2023/01/05 10:53:35;;;;;;;6.67;1.47;;;;;;;;;;5095232;28;20468;-58
2023/01/05 10:56:04;;;;;;;22.17;3.30;;;;;;;;;;5094178;28;20044;-59
2023/01/05 10:58:31;;;;;;;34.37;4.40;;;;;;;;;;5095040;28;20158;-64
2023/01/05 11:00:59;;;;;;;11.40;2.67;;;;;;;;;;5093272;28;20024;-59
2023/01/05 11:03:31;;;;;;;16.97;3.17;;;;;;;;;;5094848;28;20016;-58
2023/01/05 11:05:58;;;;;;;8.17;2.27;;;;;;;;;;5093736;28;20488;-61
2023/01/05 11:08:28;;;;;;;8.63;2.90;;;;;;;;;;5095773;28;20047;-58
2023/01/05 11:10:57;;;;;;;4.17;1.57;;;;;;;;;;5096252;28;20034;-58
2023/01/05 11:13:26;;;;;;;11.97;2.40;;;;;;;;;;5095786;28;20024;-58
2023/01/05 11:16:09;;;;;;;17.60;3.53;;;;;;;;;;5095475;28;20016;-62
2023/01/05 11:18:57;;;;;;;11.50;2.60;;;;;;;;;;5095556;28;20565;-58
2023/01/05 11:21:24;;;;;;;6.83;2.67;;;;;;;;;;5086853;28;20035;-56
2023/01/05 11:23:52;;;;;;;7.93;3.10;;;;;;;;;;5093347;28;20073;-59
2023/01/05 11:26:17;;;;;;;5.70;2.70;;;;;;;;;;5094438;28;20181;-58
2023/01/05 11:28:56;;;;;;;9.13;2.77;;;;;;;;;;5095776;28;20129;-59
2023/01/05 11:31:21;;;;;;;5.33;2.27;;;;;;;;;;5095928;28;20024;-57
2023/01/05 11:33:54;;;;;;;12.23;3.13;;;;;;;;;;5095514;28;20047;-59
2023/01/05 11:36:19;;;;;;;18.23;3.10;;;;;;;;;;5095760;28;20024;-57
2023/01/05 11:38:49;;;;;;;7.63;2.23;;;;;;;;;;5097307;28;20024;-59
2023/01/05 11:41:16;;;;;;;4.60;2.10;;;;;;;;;;5095221;28;20020;-58
2023/01/05 11:43:45;;;;;;;9.20;2.37;;;;;;;;;;5095766;28;20433;-57
2023/01/05 11:46:13;;;;;;;10.13;2.60;;;;;;;;;;5093850;28;20122;-57
2023/01/05 11:48:50;;;;;;;7.43;2.40;;;;;;;;;;5093454;28;20048;-59
2023/01/05 11:51:38;;;;;;;13.40;3.40;;;;;;;;;;5094218;28;20028;-57
2023/01/05 11:54:04;;;;;;;11.07;2.27;;;;;;;;;;5081912;28;20028;-57
2023/01/05 11:56:29;;;;;;;18.30;2.77;;;;;;;;;;5092991;28;20146;-59
2023/01/05 11:58:59;;;;;;;13.47;3.40;;;;;;;;;;5093120;28;20523;-58
2023/01/05 12:01:24;;;;;;;11.33;2.73;;;;;;;;;;5094294;28;20016;-57
2023/01/05 12:03:50;;;;;;;3.80;1.47;;;;;;;;;;5093751;28;20012;-59
2023/01/05 12:06:34;;;;;;;11.67;2.47;;;;;;;;;;5093392;28;20044;-58
2023/01/05 12:09:02;;;;;;;11.97;2.90;;;;;;;;;;5094123;28;20428;-57
2023/01/05 12:11:30;;;;;;;7.87;2.63;;;;;;;;;;5093900;28;20095;-57
2023/01/05 12:14:01;;;;;;;8.10;2.47;;;;;;;;;;5092437;28;20084;-59
2023/01/05 12:16:36;;;;;;;30.93;5.03;;;;;;;;;;5094818;28;20024;-58
2023/01/05 12:19:11;;;;;;;11.07;3.00;;;;;;;;;;5094452;28;20055;-60
2023/01/05 12:21:40;;;;;;;16.75;3.13;;;;;;;;;;5095235;28;20047;-58
2023/01/05 12:24:31;;;;;;;11.70;2.77;;;;;;;;;;5094951;28;20475;-58
2023/01/05 12:27:15;;;;;;;9.87;2.40;;;;;;;;;;5089310;28;20024;-69
2023/01/05 12:30:07;;;;;;;11.87;2.70;;;;;;;;;;5094329;28;20028;-58
2023/01/05 12:32:33;;;;;;;5.67;2.90;;;;;;;;;;5093328;28;20473;-58
2023/01/05 12:35:17;;;;;;;8.10;3.07;;;;;;;;;;5094440;28;20107;-64
2023/01/05 12:37:46;;;;;;;6.40;2.05;;;;;;;;;;5093588;28;20107;-58
2023/01/05 12:40:14;;;;;;;9.20;2.80;;;;;;;;;;5093082;28;20460;-56
2023/01/05 12:43:00;;;;;;;5.77;2.37;;;;;;;;;;5094543;28;20044;-58
2023/01/05 12:45:48;;;;;;;9.03;2.83;;;;;;;;;;5091996;28;20096;-57
2023/01/05 12:48:27;;;;;;;10.97;2.23;;;;;;;;;;5093953;28;20357;-57
2023/01/05 12:51:09;;;;;;;14.37;3.20;;;;;;;;;;5093934;28;20061;-59
2023/01/05 12:53:39;;;;;;;18.83;3.83;;;;;;;;;;5094234;28;20400;-59
2023/01/05 12:56:13;;;;;;;10.17;2.90;;;;;;;;;;5093067;28;20024;-61
2023/01/05 12:58:42;;;;;;;10.37;2.17;;;;;;;;;;5093134;28;20078;-57
2023/01/05 13:01:15;;;;;;;11.33;2.93;;;;;;;;;;5092562;28;20051;-57
2023/01/05 13:03:46;;;;;;;7.53;2.03;;;;;;;;;;5092994;28;20016;-58
2023/01/05 13:06:15;;;;;;;14.00;3.80;;;;;;;;;;5092299;28;20040;-61
2023/01/05 13:08:41;;;;;;;10.03;3.20;;;;;;;;;;5094035;28;20093;-58
2023/01/05 13:11:14;;;;;;;11.13;3.47;;;;;;;;;;5091906;28;20043;-58
2023/01/05 13:13:46;;;;;;;14.43;3.30;;;;;;;;;;5091530;28;20020;-60
2023/01/05 13:16:14;;;;;;;6.30;2.80;;;;;;;;;;5093716;28;20027;-63
2023/01/05 13:18:42;;;;;;;8.80;3.33;;;;;;;;;;5093867;28;20038;-59
2023/01/05 13:21:07;;;;;;;7.73;1.97;;;;;;;;;;5093202;28;20027;-60
2023/01/05 13:23:35;;;;;;;9.73;3.20;;;;;;;;;;5092611;28;20065;-57
2023/01/05 13:26:16;;;;;;;2.43;0.80;;;;;;;;;;5092706;28;20103;-58
2023/01/05 13:28:45;;;;;;;11.23;3.10;;;;;;;;;;5094132;28;20035;-56
2023/01/05 13:31:34;;;;;;;10.27;3.60;;;;;;;;;;5093196;28;20022;-58
2023/01/05 13:34:00;;;;;;;11.23;3.97;;;;;;;;;;5091635;28;20471;-60
2023/01/05 13:36:25;;;;;;;10.90;2.70;;;;;;;;;;5092814;28;20020;-57
2023/01/05 13:38:59;;;;;;;13.40;4.53;;;;;;;;;;5091402;28;20028;-58
2023/01/05 13:41:28;;;;;;;25.13;3.43;;;;;;;;;;5091383;28;20020;-57
2023/01/05 13:43:56;;;;;;;13.43;3.07;;;;;;;;;;5091549;28;20406;-58
2023/01/05 13:46:29;;;;;;;9.63;3.07;;;;;;;;;;5092564;28;20024;-57
2023/01/05 13:49:14;;;;;;;12.83;4.27;;;;;;;;;;5092727;28;20019;-58
2023/01/05 13:51:46;;;;;;;10.68;3.25;;;;;;;;;;5093206;28;20016;-59
2023/01/05 13:54:38;;;;;;;9.47;3.20;;;;;;;;;;5092149;28;20028;-58
2023/01/05 13:57:08;;;;;;;9.90;2.90;;;;;;;;;;5089045;28;20550;-57
2023/01/05 13:59:34;;;;;;;11.57;2.87;;;;;;;;;;5092995;28;20020;-58
2023/01/05 14:02:00;;;;;;;11.40;2.93;;;;;;;;;;5092555;28;20123;-58
2023/01/05 14:04:27;;;;;;;6.97;2.60;;;;;;;;;;5092616;28;20020;-57
2023/01/05 14:06:55;;;;;;;7.80;2.90;;;;;;;;;;5092962;28;20048;-58
2023/01/05 14:09:25;;;;;;;8.93;3.13;;;;;;;;;;5091715;28;20020;-58
2023/01/05 14:12:09;;;;;;;12.03;2.57;;;;;;;;;;5092659;28;20020;-57
2023/01/05 14:14:53;;;;;;;6.83;2.67;;;;;;;;;;5091321;28;20099;-57
2023/01/05 14:17:54;;;;;;;8.77;3.30;;;;;;;;;;5090524;28;20035;-58
2023/01/05 14:20:29;;;;;;;7.77;2.20;;;;;;;;;;5048613;28;20032;-59
2023/01/05 14:22:54;;;;;;;6.25;2.50;;;;;;;;;;5091542;28;20108;-57
2023/01/05 14:25:43;;;;;;;6.07;1.73;;;;;;;;;;5092007;28;20111;-58
2023/01/05 14:28:20;;;;;;;12.67;3.73;;;;;;;;;;5084278;28;20024;-57
2023/01/05 14:30:46;;;;;;;7.63;2.80;;;;;;;;;;5091113;28;20100;-57
2023/01/05 14:33:11;;;;;;;13.90;3.10;;;;;;;;;;5092272;28;20066;-58
2023/01/05 14:35:37;;;;;;;13.27;2.87;;;;;;;;;;5092680;28;20017;-63
2023/01/05 14:38:14;;;;;;;9.30;2.43;;;;;;;;;;5094891;28;20031;-57
2023/01/05 14:40:44;;;;;;;12.30;2.90;;;;;;;;;;5097737;28;20052;-59
2023/01/05 14:43:19;;;;;;;5.20;2.50;;;;;;;;;;5097464;28;20095;-55
2023/01/05 14:45:55;;;;;;;11.30;3.00;;;;;;;;;;5096816;28;20087;-57
2023/01/05 14:48:28;;;;;;;11.10;2.97;;;;;;;;;;5096269;28;20111;-58
2023/01/05 14:51:06;;;;;;;8.00;2.37;;;;;;;;;;5094386;28;20044;-59
2023/01/05 14:53:42;;;;;;;8.50;3.10;;;;;;;;;;5095877;28;20032;-58
2023/01/05 14:56:08;;;;;;;7.63;2.37;;;;;;;;;;5095502;28;20104;-57
2023/01/05 14:58:42;;;;;;;7.07;2.87;;;;;;;;;;5094227;28;20115;-56
2023/01/05 15:01:16;;;;;;;10.30;2.53;;;;;;;;;;5095673;28;20020;-58
2023/01/05 15:03:51;;;;;;;8.07;2.67;;;;;;;;;;5094114;28;20498;-59
2023/01/05 15:06:22;;;;;;;8.20;2.47;;;;;;;;;;5095979;28;20051;-58
2023/01/05 15:09:00;;;;;;;11.17;2.60;;;;;;;;;;5096309;28;20028;-65
2023/01/05 15:11:36;;;;;;;13.47;2.83;;;;;;;;;;5096149;28;20039;-58
2023/01/05 15:14:31;;;;;;;12.50;3.00;;;;;;;;;;5094901;28;20383;-56
2023/01/05 15:17:09;;;;;;;3.58;1.48;;;;;;;;;;5095359;28;20030;-58
2023/01/05 15:19:37;;;;;;;6.63;1.87;;;;;;;;;;5096199;28;20379;-60
2023/01/05 15:22:22;;;;;;;10.57;2.23;;;;;;;;;;5094523;28;20016;-58
2023/01/05 15:24:47;;;;;;;10.13;3.10;;;;;;;;;;5093345;28;20027;-59